sensor_id;sensor_type;location;lat;lon;timestamp;temperature;humidity
19781;DHT22;10050;55.492;13.506;2023-04-25T00:01:13;8.20;99.90
19781;DHT22;10050;55.492;13.506;2023-04-25T00:03:39;8.20;99.90
19781;DHT22;10050;55.492;13.506;2023-04-25T00:06:06;8.20;99.90
19781;DHT22;10050;55.492;13.506;2023-04-25T00:08:32;8.20;99.90
19781;DHT22;10050;55.492;13.506;2023-04-25T00:10:58;8.10;99.90
19781;DHT22;10050;55.492;13.506;2023-04-25T00:13:25;8.10;99.90
19781;DHT22;10050;55.492;13.506;2023-04-25T00:15:51;8.00;99.90
19781;DHT22;10050;55.492;13.506;2023-04-25T00:18:19;8.00;99.90
19781;DHT22;10050;55.492;13.506;2023-04-25T00:20:44;8.00;99.90
19781;DHT22;10050;55.492;13.506;2023-04-25T00:23:13;8.00;99.90
19781;DHT22;10050;55.492;13.506;2023-04-25T00:25:43;8.00;99.90
19781;DHT22;10050;55.492;13.506;2023-04-25T00:28:12;8.00;99.90
19781;DHT22;10050;55.492;13.506;2023-04-25T00:30:39;8.00;99.90
19781;DHT22;10050;55.492;13.506;2023-04-25T00:33:05;8.10;99.90
19781;DHT22;10050;55.492;13.506;2023-04-25T00:35:31;8.10;99.90
19781;DHT22;10050;55.492;13.506;2023-04-25T00:37:56;8.10;99.90
19781;DHT22;10050;55.492;13.506;2023-04-25T00:40:22;8.10;99.90
19781;DHT22;10050;55.492;13.506;2023-04-25T00:42:48;8.10;99.90
19781;DHT22;10050;55.492;13.506;2023-04-25T00:45:14;8.20;99.90
19781;DHT22;10050;55.492;13.506;2023-04-25T00:47:42;8.20;99.90
19781;DHT22;10050;55.492;13.506;2023-04-25T00:50:09;8.20;99.90
19781;DHT22;10050;55.492;13.506;2023-04-25T00:52:36;8.20;99.90
19781;DHT22;10050;55.492;13.506;2023-04-25T00:55:02;8.20;99.90
19781;DHT22;10050;55.492;13.506;2023-04-25T00:57:29;8.20;99.90
19781;DHT22;10050;55.492;13.506;2023-04-25T00:59:54;8.20;99.90
19781;DHT22;10050;55.492;13.506;2023-04-25T01:02:20;8.20;99.90
19781;DHT22;10050;55.492;13.506;2023-04-25T01:04:47;8.20;99.90
19781;DHT22;10050;55.492;13.506;2023-04-25T01:07:14;8.10;99.90
19781;DHT22;10050;55.492;13.506;2023-04-25T01:09:41;8.20;99.90
19781;DHT22;10050;55.492;13.506;2023-04-25T01:12:06;8.10;99.90
19781;DHT22;10050;55.492;13.506;2023-04-25T01:14:32;8.10;99.90
19781;DHT22;10050;55.492;13.506;2023-04-25T01:16:58;8.10;99.90
19781;DHT22;10050;55.492;13.506;2023-04-25T01:19:24;8.10;99.90
19781;DHT22;10050;55.492;13.506;2023-04-25T01:21:50;8.10;99.90
19781;DHT22;10050;55.492;13.506;2023-04-25T01:24:16;8.10;99.90
19781;DHT22;10050;55.492;13.506;2023-04-25T01:26:42;8.10;99.90
19781;DHT22;10050;55.492;13.506;2023-04-25T01:29:17;8.10;99.90
19781;DHT22;10050;55.492;13.506;2023-04-25T01:31:43;8.10;99.90
19781;DHT22;10050;55.492;13.506;2023-04-25T01:34:10;8.10;99.90
19781;DHT22;10050;55.492;13.506;2023-04-25T01:36:36;8.10;99.90
19781;DHT22;10050;55.492;13.506;2023-04-25T01:39:02;8.00;99.90
19781;DHT22;10050;55.492;13.506;2023-04-25T01:41:28;8.00;99.90
19781;DHT22;10050;55.492;13.506;2023-04-25T01:43:54;8.00;99.90
19781;DHT22;10050;55.492;13.506;2023-04-25T01:46:20;8.00;99.90
19781;DHT22;10050;55.492;13.506;2023-04-25T01:48:45;8.00;99.90
19781;DHT22;10050;55.492;13.506;2023-04-25T01:51:11;8.00;99.90
19781;DHT22;10050;55.492;13.506;2023-04-25T01:53:38;8.00;99.90
19781;DHT22;10050;55.492;13.506;2023-04-25T01:56:05;8.00;99.90
19781;DHT22;10050;55.492;13.506;2023-04-25T01:58:31;8.00;99.90
19781;DHT22;10050;55.492;13.506;2023-04-25T02:00:56;8.00;99.90
19781;DHT22;10050;55.492;13.506;2023-04-25T02:03:22;7.90;99.90
19781;DHT22;10050;55.492;13.506;2023-04-25T02:05:48;7.90;99.90
19781;DHT22;10050;55.492;13.506;2023-04-25T02:08:14;7.90;99.90
19781;DHT22;10050;55.492;13.506;2023-04-25T02:10:39;7.90;99.90
19781;DHT22;10050;55.492;13.506;2023-04-25T02:13:05;7.90;99.90
19781;DHT22;10050;55.492;13.506;2023-04-25T02:15:31;7.90;99.90
19781;DHT22;10050;55.492;13.506;2023-04-25T02:17:57;7.90;99.90
19781;DHT22;10050;55.492;13.506;2023-04-25T02:20:24;7.90;99.90
19781;DHT22;10050;55.492;13.506;2023-04-25T02:22:50;7.90;99.90
19781;DHT22;10050;55.492;13.506;2023-04-25T02:25:17;7.90;99.90
19781;DHT22;10050;55.492;13.506;2023-04-25T02:27:42;7.80;99.90
19781;DHT22;10050;55.492;13.506;2023-04-25T02:30:08;7.80;99.90
19781;DHT22;10050;55.492;13.506;2023-04-25T02:32:34;7.90;99.90
19781;DHT22;10050;55.492;13.506;2023-04-25T02:35:01;7.90;99.90
19781;DHT22;10050;55.492;13.506;2023-04-25T02:37:33;7.80;99.90
19781;DHT22;10050;55.492;13.506;2023-04-25T02:39:59;7.80;99.90
19781;DHT22;10050;55.492;13.506;2023-04-25T02:42:25;7.80;99.90
19781;DHT22;10050;55.492;13.506;2023-04-25T02:44:51;7.90;99.90
19781;DHT22;10050;55.492;13.506;2023-04-25T02:47:16;7.90;99.90
19781;DHT22;10050;55.492;13.506;2023-04-25T02:49:42;7.90;99.90
19781;DHT22;10050;55.492;13.506;2023-04-25T02:52:08;7.90;99.90
19781;DHT22;10050;55.492;13.506;2023-04-25T02:54:34;7.80;99.90
19781;DHT22;10050;55.492;13.506;2023-04-25T02:56:59;7.80;99.90
19781;DHT22;10050;55.492;13.506;2023-04-25T02:59:26;7.90;99.90
19781;DHT22;10050;55.492;13.506;2023-04-25T03:01:51;7.90;99.90
19781;DHT22;10050;55.492;13.506;2023-04-25T03:04:17;7.90;99.90
19781;DHT22;10050;55.492;13.506;2023-04-25T03:06:44;7.80;99.90
19781;DHT22;10050;55.492;13.506;2023-04-25T03:09:10;7.90;99.90
19781;DHT22;10050;55.492;13.506;2023-04-25T03:11:38;7.90;99.90
19781;DHT22;10050;55.492;13.506;2023-04-25T03:14:04;7.90;99.90
19781;DHT22;10050;55.492;13.506;2023-04-25T03:16:29;7.90;99.90
19781;DHT22;10050;55.492;13.506;2023-04-25T03:18:56;7.90;99.90
19781;DHT22;10050;55.492;13.506;2023-04-25T03:21:22;7.90;99.90
19781;DHT22;10050;55.492;13.506;2023-04-25T03:23:48;7.80;99.90
19781;DHT22;10050;55.492;13.506;2023-04-25T03:26:13;7.80;99.90
19781;DHT22;10050;55.492;13.506;2023-04-25T03:28:39;7.80;99.90
19781;DHT22;10050;55.492;13.506;2023-04-25T03:31:05;7.80;99.90
19781;DHT22;10050;55.492;13.506;2023-04-25T03:33:31;7.80;99.90
19781;DHT22;10050;55.492;13.506;2023-04-25T03:35:57;7.80;99.90
19781;DHT22;10050;55.492;13.506;2023-04-25T03:38:23;7.80;99.90
19781;DHT22;10050;55.492;13.506;2023-04-25T03:40:49;7.80;99.90
19781;DHT22;10050;55.492;13.506;2023-04-25T03:43:16;7.80;99.90
19781;DHT22;10050;55.492;13.506;2023-04-25T03:45:41;7.80;99.90
19781;DHT22;10050;55.492;13.506;2023-04-25T03:48:07;7.80;99.90
19781;DHT22;10050;55.492;13.506;2023-04-25T03:50:33;7.80;99.90
19781;DHT22;10050;55.492;13.506;2023-04-25T03:52:58;7.80;99.90
19781;DHT22;10050;55.492;13.506;2023-04-25T03:55:24;7.80;99.90
19781;DHT22;10050;55.492;13.506;2023-04-25T03:57:50;7.80;99.90
19781;DHT22;10050;55.492;13.506;2023-04-25T04:00:15;7.90;99.90
19781;DHT22;10050;55.492;13.506;2023-04-25T04:02:41;7.90;99.90
19781;DHT22;10050;55.492;13.506;2023-04-25T04:05:07;7.90;99.90
19781;DHT22;10050;55.492;13.506;2023-04-25T04:07:33;7.80;99.90
19781;DHT22;10050;55.492;13.506;2023-04-25T04:10:01;7.80;99.90
19781;DHT22;10050;55.492;13.506;2023-04-25T04:12:27;7.80;99.90
19781;DHT22;10050;55.492;13.506;2023-04-25T04:14:53;7.80;99.90
19781;DHT22;10050;55.492;13.506;2023-04-25T04:17:18;7.80;99.90
19781;DHT22;10050;55.492;13.506;2023-04-25T04:19:44;7.80;99.90
19781;DHT22;10050;55.492;13.506;2023-04-25T04:22:10;7.80;99.90
19781;DHT22;10050;55.492;13.506;2023-04-25T04:24:35;7.90;99.90
19781;DHT22;10050;55.492;13.506;2023-04-25T04:27:01;7.80;99.90
19781;DHT22;10050;55.492;13.506;2023-04-25T04:29:27;7.80;99.90
19781;DHT22;10050;55.492;13.506;2023-04-25T04:31:52;7.80;99.90
19781;DHT22;10050;55.492;13.506;2023-04-25T04:34:18;7.80;99.90
19781;DHT22;10050;55.492;13.506;2023-04-25T04:36:45;7.80;99.90
19781;DHT22;10050;55.492;13.506;2023-04-25T04:39:12;7.80;99.90
19781;DHT22;10050;55.492;13.506;2023-04-25T04:41:38;7.80;99.90
19781;DHT22;10050;55.492;13.506;2023-04-25T04:44:04;7.90;99.90
19781;DHT22;10050;55.492;13.506;2023-04-25T04:46:32;7.90;99.90
19781;DHT22;10050;55.492;13.506;2023-04-25T04:49:04;7.80;99.90
19781;DHT22;10050;55.492;13.506;2023-04-25T04:51:30;7.80;99.90
19781;DHT22;10050;55.492;13.506;2023-04-25T04:53:56;7.80;99.90
19781;DHT22;10050;55.492;13.506;2023-04-25T04:56:24;7.80;99.90
19781;DHT22;10050;55.492;13.506;2023-04-25T04:58:51;7.80;99.90
19781;DHT22;10050;55.492;13.506;2023-04-25T05:01:17;7.80;99.90
19781;DHT22;10050;55.492;13.506;2023-04-25T05:03:43;7.80;99.90
19781;DHT22;10050;55.492;13.506;2023-04-25T05:06:09;7.80;99.90
19781;DHT22;10050;55.492;13.506;2023-04-25T05:08:35;7.80;99.90
19781;DHT22;10050;55.492;13.506;2023-04-25T05:11:01;7.80;99.90
19781;DHT22;10050;55.492;13.506;2023-04-25T05:13:27;7.80;99.90
19781;DHT22;10050;55.492;13.506;2023-04-25T05:15:53;7.90;99.90
19781;DHT22;10050;55.492;13.506;2023-04-25T05:18:18;7.90;99.90
19781;DHT22;10050;55.492;13.506;2023-04-25T05:20:44;7.90;99.90
19781;DHT22;10050;55.492;13.506;2023-04-25T05:23:10;7.90;99.90
19781;DHT22;10050;55.492;13.506;2023-04-25T05:25:36;7.90;99.90
19781;DHT22;10050;55.492;13.506;2023-04-25T05:28:02;7.90;99.90
19781;DHT22;10050;55.492;13.506;2023-04-25T05:30:27;8.00;99.90
19781;DHT22;10050;55.492;13.506;2023-04-25T05:32:53;8.00;99.90
19781;DHT22;10050;55.492;13.506;2023-04-25T05:35:18;8.00;99.90
19781;DHT22;10050;55.492;13.506;2023-04-25T05:37:44;8.00;99.90
19781;DHT22;10050;55.492;13.506;2023-04-25T05:40:13;8.00;99.90
19781;DHT22;10050;55.492;13.506;2023-04-25T05:42:39;8.00;99.90
19781;DHT22;10050;55.492;13.506;2023-04-25T05:45:05;8.00;99.90
19781;DHT22;10050;55.492;13.506;2023-04-25T05:47:31;8.00;99.90
19781;DHT22;10050;55.492;13.506;2023-04-25T05:49:57;8.10;99.90
19781;DHT22;10050;55.492;13.506;2023-04-25T05:52:23;8.10;99.90
19781;DHT22;10050;55.492;13.506;2023-04-25T05:54:48;8.10;99.90
19781;DHT22;10050;55.492;13.506;2023-04-25T05:57:25;8.10;99.90
19781;DHT22;10050;55.492;13.506;2023-04-25T05:59:51;8.10;99.90
19781;DHT22;10050;55.492;13.506;2023-04-25T06:02:18;8.10;99.90
19781;DHT22;10050;55.492;13.506;2023-04-25T06:04:44;8.10;99.90
19781;DHT22;10050;55.492;13.506;2023-04-25T06:07:09;8.10;99.90
19781;DHT22;10050;55.492;13.506;2023-04-25T06:09:35;8.10;99.90
19781;DHT22;10050;55.492;13.506;2023-04-25T06:12:01;8.10;99.90
19781;DHT22;10050;55.492;13.506;2023-04-25T06:14:27;8.00;99.90
19781;DHT22;10050;55.492;13.506;2023-04-25T06:16:52;8.00;99.90
19781;DHT22;10050;55.492;13.506;2023-04-25T06:19:18;8.10;99.90
19781;DHT22;10050;55.492;13.506;2023-04-25T06:21:44;8.10;99.90
19781;DHT22;10050;55.492;13.506;2023-04-25T06:24:10;8.10;99.90
19781;DHT22;10050;55.492;13.506;2023-04-25T06:26:36;8.00;99.90
19781;DHT22;10050;55.492;13.506;2023-04-25T06:29:01;8.00;99.90
19781;DHT22;10050;55.492;13.506;2023-04-25T06:31:27;8.00;99.90
19781;DHT22;10050;55.492;13.506;2023-04-25T06:33:54;7.90;99.90
19781;DHT22;10050;55.492;13.506;2023-04-25T06:36:20;7.90;99.90
19781;DHT22;10050;55.492;13.506;2023-04-25T06:38:51;7.90;99.90
19781;DHT22;10050;55.492;13.506;2023-04-25T06:41:17;7.90;99.90
19781;DHT22;10050;55.492;13.506;2023-04-25T06:43:44;7.90;99.90
19781;DHT22;10050;55.492;13.506;2023-04-25T06:46:10;8.00;99.90
19781;DHT22;10050;55.492;13.506;2023-04-25T06:48:35;8.00;99.90
19781;DHT22;10050;55.492;13.506;2023-04-25T06:51:01;7.90;99.90
19781;DHT22;10050;55.492;13.506;2023-04-25T06:53:27;7.90;99.90
19781;DHT22;10050;55.492;13.506;2023-04-25T06:55:52;7.90;99.90
19781;DHT22;10050;55.492;13.506;2023-04-25T06:58:18;7.90;99.90
19781;DHT22;10050;55.492;13.506;2023-04-25T07:00:44;7.90;99.90
19781;DHT22;10050;55.492;13.506;2023-04-25T07:03:10;8.00;99.90
19781;DHT22;10050;55.492;13.506;2023-04-25T07:05:36;7.90;99.90
19781;DHT22;10050;55.492;13.506;2023-04-25T07:08:01;7.90;99.90
19781;DHT22;10050;55.492;13.506;2023-04-25T07:10:28;7.90;99.90
19781;DHT22;10050;55.492;13.506;2023-04-25T07:12:54;7.90;99.90
19781;DHT22;10050;55.492;13.506;2023-04-25T07:15:19;7.90;99.90
19781;DHT22;10050;55.492;13.506;2023-04-25T07:17:45;7.90;99.90
19781;DHT22;10050;55.492;13.506;2023-04-25T07:20:11;8.00;99.90
19781;DHT22;10050;55.492;13.506;2023-04-25T07:22:37;7.90;99.90
19781;DHT22;10050;55.492;13.506;2023-04-25T07:25:02;8.00;99.90
19781;DHT22;10050;55.492;13.506;2023-04-25T07:27:30;7.90;99.90
19781;DHT22;10050;55.492;13.506;2023-04-25T07:29:55;7.90;99.90
19781;DHT22;10050;55.492;13.506;2023-04-25T07:32:21;7.90;99.90
19781;DHT22;10050;55.492;13.506;2023-04-25T07:34:47;7.90;99.90
19781;DHT22;10050;55.492;13.506;2023-04-25T07:37:12;7.90;99.90
19781;DHT22;10050;55.492;13.506;2023-04-25T07:39:39;7.80;99.90
19781;DHT22;10050;55.492;13.506;2023-04-25T07:42:05;7.80;99.90
19781;DHT22;10050;55.492;13.506;2023-04-25T07:44:36;7.80;99.90
19781;DHT22;10050;55.492;13.506;2023-04-25T07:47:09;7.80;99.90
19781;DHT22;10050;55.492;13.506;2023-04-25T07:49:38;7.70;99.90
19781;DHT22;10050;55.492;13.506;2023-04-25T07:52:04;7.70;99.90
19781;DHT22;10050;55.492;13.506;2023-04-25T07:54:33;7.80;99.90
19781;DHT22;10050;55.492;13.506;2023-04-25T07:56:58;7.80;99.90
19781;DHT22;10050;55.492;13.506;2023-04-25T07:59:25;7.80;99.90
19781;DHT22;10050;55.492;13.506;2023-04-25T08:01:50;7.80;99.90
19781;DHT22;10050;55.492;13.506;2023-04-25T08:04:16;7.70;99.90
19781;DHT22;10050;55.492;13.506;2023-04-25T08:06:42;7.70;99.90
19781;DHT22;10050;55.492;13.506;2023-04-25T08:09:08;7.80;99.90
19781;DHT22;10050;55.492;13.506;2023-04-25T08:11:35;7.70;99.90
19781;DHT22;10050;55.492;13.506;2023-04-25T08:14:00;7.70;99.90
19781;DHT22;10050;55.492;13.506;2023-04-25T08:16:27;7.80;99.90
19781;DHT22;10050;55.492;13.506;2023-04-25T08:18:52;7.80;99.90
19781;DHT22;10050;55.492;13.506;2023-04-25T08:21:18;7.90;99.90
19781;DHT22;10050;55.492;13.506;2023-04-25T08:23:44;7.90;99.90
19781;DHT22;10050;55.492;13.506;2023-04-25T08:26:10;7.90;99.90
19781;DHT22;10050;55.492;13.506;2023-04-25T08:28:35;7.90;99.90
19781;DHT22;10050;55.492;13.506;2023-04-25T08:31:01;7.90;99.90
19781;DHT22;10050;55.492;13.506;2023-04-25T08:33:27;7.90;99.90
19781;DHT22;10050;55.492;13.506;2023-04-25T08:35:52;7.90;99.90
19781;DHT22;10050;55.492;13.506;2023-04-25T08:38:18;7.90;99.90
19781;DHT22;10050;55.492;13.506;2023-04-25T08:40:49;7.90;99.90
19781;DHT22;10050;55.492;13.506;2023-04-25T08:43:18;8.00;99.90
19781;DHT22;10050;55.492;13.506;2023-04-25T08:45:44;8.10;99.90
19781;DHT22;10050;55.492;13.506;2023-04-25T08:48:12;8.00;99.90
19781;DHT22;10050;55.492;13.506;2023-04-25T08:50:56;8.10;99.90
19781;DHT22;10050;55.492;13.506;2023-04-25T08:53:27;8.10;99.90
19781;DHT22;10050;55.492;13.506;2023-04-25T08:55:54;8.10;99.90
19781;DHT22;10050;55.492;13.506;2023-04-25T08:58:21;8.20;99.90
19781;DHT22;10050;55.492;13.506;2023-04-25T09:00:47;8.20;99.90
19781;DHT22;10050;55.492;13.506;2023-04-25T09:03:13;8.30;99.90
19781;DHT22;10050;55.492;13.506;2023-04-25T09:05:40;8.20;99.90
19781;DHT22;10050;55.492;13.506;2023-04-25T09:08:06;8.20;99.90
19781;DHT22;10050;55.492;13.506;2023-04-25T09:10:33;8.30;99.90
19781;DHT22;10050;55.492;13.506;2023-04-25T09:15:29;8.20;99.90
19781;DHT22;10050;55.492;13.506;2023-04-25T09:17:58;8.20;99.90
19781;DHT22;10050;55.492;13.506;2023-04-25T09:20:24;8.20;99.90
19781;DHT22;10050;55.492;13.506;2023-04-25T09:23:04;8.10;99.90
19781;DHT22;10050;55.492;13.506;2023-04-25T09:25:37;8.10;99.90
19781;DHT22;10050;55.492;13.506;2023-04-25T09:28:05;8.10;99.90
19781;DHT22;10050;55.492;13.506;2023-04-25T09:30:33;8.10;99.90
19781;DHT22;10050;55.492;13.506;2023-04-25T09:33:10;8.10;99.90
19781;DHT22;10050;55.492;13.506;2023-04-25T09:35:40;8.20;99.90
19781;DHT22;10050;55.492;13.506;2023-04-25T09:38:13;8.30;99.90
19781;DHT22;10050;55.492;13.506;2023-04-25T09:40:44;8.30;99.90
19781;DHT22;10050;55.492;13.506;2023-04-25T09:43:20;8.30;99.90
19781;DHT22;10050;55.492;13.506;2023-04-25T09:45:46;8.40;99.90
19781;DHT22;10050;55.492;13.506;2023-04-25T09:48:22;8.40;99.90
19781;DHT22;10050;55.492;13.506;2023-04-25T09:51:08;8.40;99.90
19781;DHT22;10050;55.492;13.506;2023-04-25T09:53:36;8.40;99.90
19781;DHT22;10050;55.492;13.506;2023-04-25T09:56:04;8.50;99.90
19781;DHT22;10050;55.492;13.506;2023-04-25T09:58:31;8.50;99.90
19781;DHT22;10050;55.492;13.506;2023-04-25T10:01:03;8.50;99.90
19781;DHT22;10050;55.492;13.506;2023-04-25T10:03:31;8.50;99.90
19781;DHT22;10050;55.492;13.506;2023-04-25T10:06:00;8.50;99.90
19781;DHT22;10050;55.492;13.506;2023-04-25T10:08:32;8.50;99.90
19781;DHT22;10050;55.492;13.506;2023-04-25T10:11:03;8.50;99.90
19781;DHT22;10050;55.492;13.506;2023-04-25T10:13:30;8.50;99.90
19781;DHT22;10050;55.492;13.506;2023-04-25T10:16:00;8.60;99.90
19781;DHT22;10050;55.492;13.506;2023-04-25T10:18:27;8.70;99.90
19781;DHT22;10050;55.492;13.506;2023-04-25T10:20:59;8.60;99.90
19781;DHT22;10050;55.492;13.506;2023-04-25T10:23:25;8.60;99.90
19781;DHT22;10050;55.492;13.506;2023-04-25T10:25:52;8.70;99.90
19781;DHT22;10050;55.492;13.506;2023-04-25T10:28:19;8.90;99.90
19781;DHT22;10050;55.492;13.506;2023-04-25T10:31:02;8.90;99.90
19781;DHT22;10050;55.492;13.506;2023-04-25T10:33:38;9.00;99.90
19781;DHT22;10050;55.492;13.506;2023-04-25T10:36:17;8.80;99.90
19781;DHT22;10050;55.492;13.506;2023-04-25T10:38:43;8.80;99.90
19781;DHT22;10050;55.492;13.506;2023-04-25T10:41:10;8.80;99.90
19781;DHT22;10050;55.492;13.506;2023-04-25T10:43:41;8.90;99.90
19781;DHT22;10050;55.492;13.506;2023-04-25T10:46:30;8.90;99.90
19781;DHT22;10050;55.492;13.506;2023-04-25T10:49:01;8.90;99.90
19781;DHT22;10050;55.492;13.506;2023-04-25T10:51:28;9.00;99.90
19781;DHT22;10050;55.492;13.506;2023-04-25T10:56:31;9.10;99.90
19781;DHT22;10050;55.492;13.506;2023-04-25T10:59:17;9.20;99.90
19781;DHT22;10050;55.492;13.506;2023-04-25T11:01:45;9.20;99.90
19781;DHT22;10050;55.492;13.506;2023-04-25T11:09:24;9.50;99.90
19781;DHT22;10050;55.492;13.506;2023-04-25T11:11:59;9.70;99.90
19781;DHT22;10050;55.492;13.506;2023-04-25T11:14:26;9.80;99.90
19781;DHT22;10050;55.492;13.506;2023-04-25T11:16:59;9.80;99.90
19781;DHT22;10050;55.492;13.506;2023-04-25T11:19:28;9.80;99.90
19781;DHT22;10050;55.492;13.506;2023-04-25T11:21:56;10.00;99.90
19781;DHT22;10050;55.492;13.506;2023-04-25T11:24:32;10.00;99.90
19781;DHT22;10050;55.492;13.506;2023-04-25T11:26:58;10.00;99.90
19781;DHT22;10050;55.492;13.506;2023-04-25T11:29:28;9.90;99.90
19781;DHT22;10050;55.492;13.506;2023-04-25T11:31:55;9.80;99.90
19781;DHT22;10050;55.492;13.506;2023-04-25T11:34:23;9.70;99.90
19781;DHT22;10050;55.492;13.506;2023-04-25T11:36:50;9.70;99.90
19781;DHT22;10050;55.492;13.506;2023-04-25T11:39:18;9.70;99.90
19781;DHT22;10050;55.492;13.506;2023-04-25T11:41:44;9.70;99.90
19781;DHT22;10050;55.492;13.506;2023-04-25T11:44:09;9.80;99.90
19781;DHT22;10050;55.492;13.506;2023-04-25T11:46:35;9.90;99.90
19781;DHT22;10050;55.492;13.506;2023-04-25T11:49:01;10.00;99.90
19781;DHT22;10050;55.492;13.506;2023-04-25T11:51:27;10.00;99.90
19781;DHT22;10050;55.492;13.506;2023-04-25T11:53:53;10.00;99.90
19781;DHT22;10050;55.492;13.506;2023-04-25T11:56:18;10.00;99.90
19781;DHT22;10050;55.492;13.506;2023-04-25T11:58:56;10.10;99.90
19781;DHT22;10050;55.492;13.506;2023-04-25T12:01:48;10.10;99.90
19781;DHT22;10050;55.492;13.506;2023-04-25T12:04:17;9.90;99.90
19781;DHT22;10050;55.492;13.506;2023-04-25T12:06:45;9.90;99.90
19781;DHT22;10050;55.492;13.506;2023-04-25T12:09:18;9.80;99.90
19781;DHT22;10050;55.492;13.506;2023-04-25T12:11:52;9.90;99.90
19781;DHT22;10050;55.492;13.506;2023-04-25T12:14:26;9.90;99.90
19781;DHT22;10050;55.492;13.506;2023-04-25T12:16:54;9.90;99.90
19781;DHT22;10050;55.492;13.506;2023-04-25T12:19:21;10.00;99.90
19781;DHT22;10050;55.492;13.506;2023-04-25T12:21:48;10.00;99.90
19781;DHT22;10050;55.492;13.506;2023-04-25T12:24:21;10.10;99.90
19781;DHT22;10050;55.492;13.506;2023-04-25T12:27:00;10.10;99.90
19781;DHT22;10050;55.492;13.506;2023-04-25T12:29:29;9.90;99.90
19781;DHT22;10050;55.492;13.506;2023-04-25T12:31:55;9.80;99.90
19781;DHT22;10050;55.492;13.506;2023-04-25T12:34:22;9.70;99.90
19781;DHT22;10050;55.492;13.506;2023-04-25T12:36:49;9.60;99.90
19781;DHT22;10050;55.492;13.506;2023-04-25T12:39:19;9.60;99.90
19781;DHT22;10050;55.492;13.506;2023-04-25T12:41:45;9.60;99.90
19781;DHT22;10050;55.492;13.506;2023-04-25T12:44:12;9.60;99.90
19781;DHT22;10050;55.492;13.506;2023-04-25T12:46:38;9.50;99.90
19781;DHT22;10050;55.492;13.506;2023-04-25T12:49:06;9.40;99.90
19781;DHT22;10050;55.492;13.506;2023-04-25T12:51:36;9.40;99.90
19781;DHT22;10050;55.492;13.506;2023-04-25T12:54:03;9.40;99.90
19781;DHT22;10050;55.492;13.506;2023-04-25T12:56:30;9.40;99.90
19781;DHT22;10050;55.492;13.506;2023-04-25T12:58:55;9.40;99.90
19781;DHT22;10050;55.492;13.506;2023-04-25T13:01:22;9.50;99.90
19781;DHT22;10050;55.492;13.506;2023-04-25T13:03:48;9.40;99.90
19781;DHT22;10050;55.492;13.506;2023-04-25T13:06:15;9.50;99.90
19781;DHT22;10050;55.492;13.506;2023-04-25T13:08:41;9.50;99.90
19781;DHT22;10050;55.492;13.506;2023-04-25T13:11:08;9.40;99.90
19781;DHT22;10050;55.492;13.506;2023-04-25T13:13:33;9.50;99.90
19781;DHT22;10050;55.492;13.506;2023-04-25T13:16:03;9.50;99.90
19781;DHT22;10050;55.492;13.506;2023-04-25T13:18:30;9.70;99.90
19781;DHT22;10050;55.492;13.506;2023-04-25T13:20:56;9.80;99.90
19781;DHT22;10050;55.492;13.506;2023-04-25T13:23:23;9.90;99.90
19781;DHT22;10050;55.492;13.506;2023-04-25T13:25:48;9.80;99.90
19781;DHT22;10050;55.492;13.506;2023-04-25T13:28:14;10.00;99.90
19781;DHT22;10050;55.492;13.506;2023-04-25T13:30:40;10.00;99.90
19781;DHT22;10050;55.492;13.506;2023-04-25T13:33:06;10.00;99.90
19781;DHT22;10050;55.492;13.506;2023-04-25T13:35:34;10.10;99.90
19781;DHT22;10050;55.492;13.506;2023-04-25T13:38:00;10.10;99.90
19781;DHT22;10050;55.492;13.506;2023-04-25T13:40:26;10.00;99.90
19781;DHT22;10050;55.492;13.506;2023-04-25T13:42:52;10.00;99.90
19781;DHT22;10050;55.492;13.506;2023-04-25T13:45:19;10.00;99.90
19781;DHT22;10050;55.492;13.506;2023-04-25T13:47:45;10.10;99.90
19781;DHT22;10050;55.492;13.506;2023-04-25T13:50:11;10.10;99.90
19781;DHT22;10050;55.492;13.506;2023-04-25T13:52:36;10.00;99.90
19781;DHT22;10050;55.492;13.506;2023-04-25T13:55:02;10.00;99.90
19781;DHT22;10050;55.492;13.506;2023-04-25T13:57:30;9.90;99.90
19781;DHT22;10050;55.492;13.506;2023-04-25T13:59:56;9.90;99.90
19781;DHT22;10050;55.492;13.506;2023-04-25T14:02:21;9.80;99.90
19781;DHT22;10050;55.492;13.506;2023-04-25T14:04:47;9.80;99.90
19781;DHT22;10050;55.492;13.506;2023-04-25T14:07:14;9.80;99.90
19781;DHT22;10050;55.492;13.506;2023-04-25T14:09:41;9.70;99.90
19781;DHT22;10050;55.492;13.506;2023-04-25T14:12:07;9.80;99.90
19781;DHT22;10050;55.492;13.506;2023-04-25T14:14:33;9.80;99.90
19781;DHT22;10050;55.492;13.506;2023-04-25T14:16:59;9.90;99.90
19781;DHT22;10050;55.492;13.506;2023-04-25T14:19:24;10.10;99.90
19781;DHT22;10050;55.492;13.506;2023-04-25T14:21:50;10.20;99.90
19781;DHT22;10050;55.492;13.506;2023-04-25T14:24:16;10.30;99.90
19781;DHT22;10050;55.492;13.506;2023-04-25T14:26:42;10.20;99.90
19781;DHT22;10050;55.492;13.506;2023-04-25T14:29:09;10.10;99.90
19781;DHT22;10050;55.492;13.506;2023-04-25T14:31:37;10.10;99.90
19781;DHT22;10050;55.492;13.506;2023-04-25T14:34:04;10.00;99.90
19781;DHT22;10050;55.492;13.506;2023-04-25T14:36:30;10.00;99.90
19781;DHT22;10050;55.492;13.506;2023-04-25T14:38:56;10.00;99.90
19781;DHT22;10050;55.492;13.506;2023-04-25T14:41:22;10.10;99.90
19781;DHT22;10050;55.492;13.506;2023-04-25T14:43:48;10.20;99.90
19781;DHT22;10050;55.492;13.506;2023-04-25T14:46:14;10.30;99.90
19781;DHT22;10050;55.492;13.506;2023-04-25T14:48:40;10.30;99.90
19781;DHT22;10050;55.492;13.506;2023-04-25T14:51:05;10.20;99.90
19781;DHT22;10050;55.492;13.506;2023-04-25T14:53:31;10.10;99.90
19781;DHT22;10050;55.492;13.506;2023-04-25T14:55:57;10.10;99.90
19781;DHT22;10050;55.492;13.506;2023-04-25T14:58:23;10.20;99.90
19781;DHT22;10050;55.492;13.506;2023-04-25T15:00:49;10.30;99.90
19781;DHT22;10050;55.492;13.506;2023-04-25T15:03:16;10.40;99.90
19781;DHT22;10050;55.492;13.506;2023-04-25T15:05:43;10.30;99.90
19781;DHT22;10050;55.492;13.506;2023-04-25T15:08:08;10.40;99.90
19781;DHT22;10050;55.492;13.506;2023-04-25T15:10:34;10.40;99.90
19781;DHT22;10050;55.492;13.506;2023-04-25T15:13:00;10.40;99.90
19781;DHT22;10050;55.492;13.506;2023-04-25T15:15:26;10.30;99.90
19781;DHT22;10050;55.492;13.506;2023-04-25T15:17:52;10.30;99.90
19781;DHT22;10050;55.492;13.506;2023-04-25T15:20:20;10.40;99.90
19781;DHT22;10050;55.492;13.506;2023-04-25T15:22:46;10.40;99.90
19781;DHT22;10050;55.492;13.506;2023-04-25T15:25:14;10.30;99.90
19781;DHT22;10050;55.492;13.506;2023-04-25T15:27:41;10.20;99.90
19781;DHT22;10050;55.492;13.506;2023-04-25T15:30:10;10.10;99.90
19781;DHT22;10050;55.492;13.506;2023-04-25T15:32:37;10.10;99.90
19781;DHT22;10050;55.492;13.506;2023-04-25T15:35:05;10.10;99.90
19781;DHT22;10050;55.492;13.506;2023-04-25T15:37:32;10.10;99.90